createdAt,value
2023-05-01T00:01:53.438Z,67.18
2023-05-01T00:04:21.932Z,66.89
2023-05-01T00:06:48.486Z,66.32
2023-05-01T00:09:15.182Z,66.53
2023-05-01T00:11:41.644Z,66.40
2023-05-01T00:14:08.162Z,65.50
2023-05-01T00:16:36.243Z,66.46
2023-05-01T00:19:04.121Z,67.15
2023-05-01T00:21:31.017Z,66.04
2023-05-01T00:23:57.564Z,66.65
2023-05-01T00:26:27.122Z,66.99
2023-05-01T00:28:53.570Z,67.98
2023-05-01T00:31:20.055Z,67.94
2023-05-01T00:33:46.496Z,68.23
2023-05-01T00:36:12.978Z,68.40
2023-05-01T00:38:39.676Z,68.36
2023-05-01T00:41:06.146Z,68.55
2023-05-01T00:43:32.723Z,68.99
2023-05-01T00:45:59.394Z,67.85
2023-05-01T00:48:26.124Z,67.81
2023-05-01T00:50:53.324Z,67.66
2023-05-01T00:53:20.532Z,67.95
2023-05-01T00:55:47.451Z,67.84
2023-05-01T00:58:17.581Z,67.28
2023-05-01T01:00:44.582Z,67.16
2023-05-01T01:03:11.726Z,67.40
2023-05-01T01:05:45.453Z,67.81
2023-05-01T01:08:31.261Z,67.66
2023-05-01T01:11:34.737Z,67.52
2023-05-01T01:14:13.290Z,66.82
2023-05-01T01:16:44.852Z,67.23
2023-05-01T01:19:20.726Z,67.38
2023-05-01T01:21:50.401Z,66.76
2023-05-01T01:24:32.358Z,67.35
2023-05-01T01:27:36.261Z,67.59
2023-05-01T01:30:27.058Z,67.17
2023-05-01T01:33:07.365Z,68.18
2023-05-01T01:35:34.278Z,69.16
2023-05-01T01:38:05.104Z,68.99
2023-05-01T01:40:49.461Z,69.22
2023-05-01T01:43:17.493Z,69.38
2023-05-01T01:45:47.462Z,69.10
2023-05-01T01:48:17.782Z,69.16
2023-05-01T01:50:45.805Z,68.71
2023-05-01T01:53:17.422Z,68.62
2023-05-01T01:55:44.962Z,68.81
2023-05-01T01:58:12.150Z,68.37
2023-05-01T02:00:41.956Z,68.72
2023-05-01T02:03:09.458Z,68.75
2023-05-01T02:05:36.565Z,68.52
2023-05-01T02:08:05.238Z,68.34
2023-05-01T02:10:32.922Z,69.16
2023-05-01T02:13:00.544Z,69.99
2023-05-01T02:15:28.083Z,69.69
2023-05-01T02:17:55.010Z,69.44
2023-05-01T02:20:22.152Z,68.80
2023-05-01T02:22:49.585Z,69.31
2023-05-01T02:25:16.779Z,68.80
2023-05-01T02:28:07.433Z,69.09
2023-05-01T02:30:33.942Z,67.98
2023-05-01T02:33:00.477Z,69.73
2023-05-01T02:35:27.108Z,69.05
2023-05-01T02:37:53.736Z,69.12
2023-05-01T02:40:20.243Z,69.52
2023-05-01T02:42:48.592Z,69.37
2023-05-01T02:45:20.112Z,68.94
2023-05-01T02:47:49.829Z,69.66
2023-05-01T02:50:17.157Z,69.02
2023-05-01T02:52:44.890Z,69.83
2023-05-01T02:55:11.546Z,69.42
2023-05-01T02:57:38.418Z,69.01
2023-05-01T03:00:09.403Z,69.58
2023-05-01T03:02:35.998Z,69.53
2023-05-01T03:05:02.525Z,70.18
2023-05-01T03:07:35.037Z,69.61
2023-05-01T03:10:06.212Z,69.79
2023-05-01T03:12:32.719Z,70.58
2023-05-01T03:14:59.379Z,69.70
2023-05-01T03:17:26.208Z,69.20
2023-05-01T03:19:52.743Z,70.13
2023-05-01T03:22:19.344Z,69.65
2023-05-01T03:24:47.491Z,69.64
2023-05-01T03:27:14.319Z,70.07
2023-05-01T03:29:40.791Z,69.71
2023-05-01T03:32:07.367Z,69.29
2023-05-01T03:34:34.277Z,69.76
2023-05-01T03:37:00.788Z,69.57
2023-05-01T03:39:27.224Z,69.26
2023-05-01T03:41:53.670Z,70.05
2023-05-01T03:44:20.133Z,69.56
2023-05-01T03:46:46.847Z,69.18
2023-05-01T03:49:13.381Z,69.64
2023-05-01T03:51:39.873Z,69.43
2023-05-01T03:54:06.395Z,69.76
2023-05-01T03:56:35.796Z,69.29
2023-05-01T03:59:02.613Z,69.96
2023-05-01T04:01:29.073Z,69.76
2023-05-01T04:03:55.625Z,69.27
2023-05-01T04:06:22.915Z,69.35
2023-05-01T04:08:49.399Z,69.54
2023-05-01T04:11:16.037Z,69.40
2023-05-01T04:13:42.557Z,69.28
2023-05-01T04:16:09.174Z,68.31
2023-05-01T04:18:35.724Z,69.00
2023-05-01T04:21:02.594Z,68.02
2023-05-01T04:23:29.048Z,68.18
2023-05-01T04:25:55.527Z,67.71
2023-05-01T04:28:21.974Z,67.26
2023-05-01T04:30:48.512Z,66.94
2023-05-01T04:33:14.959Z,67.25
2023-05-01T04:35:42.239Z,66.75
2023-05-01T04:38:10.421Z,66.42
2023-05-01T04:40:36.942Z,66.37
2023-05-01T04:43:03.408Z,65.64
2023-05-01T04:45:29.898Z,66.87
2023-05-01T04:47:56.723Z,66.21
2023-05-01T04:50:23.233Z,65.88
2023-05-01T04:52:49.706Z,65.22
2023-05-01T04:55:16.616Z,64.93
2023-05-01T04:57:43.060Z,64.59
2023-05-01T05:00:10.072Z,65.12
2023-05-01T05:02:36.586Z,64.21
2023-05-01T05:05:03.351Z,64.06
2023-05-01T05:07:30.291Z,64.12
2023-05-01T05:09:56.922Z,64.27
2023-05-01T05:12:23.584Z,63.90
2023-05-01T05:14:50.087Z,63.97
2023-05-01T05:17:16.571Z,63.56
2023-05-01T05:19:43.032Z,63.66
2023-05-01T05:22:09.520Z,63.85
2023-05-01T05:24:35.991Z,62.95
2023-05-01T05:27:04.100Z,63.03
2023-05-01T05:29:30.531Z,63.35
2023-05-01T05:31:57.899Z,63.05
2023-05-01T05:34:24.478Z,62.69
2023-05-01T05:36:50.968Z,62.48
2023-05-01T05:39:17.822Z,62.22
2023-05-01T05:41:44.295Z,61.81
2023-05-01T05:44:11.324Z,61.57
2023-05-01T05:46:37.851Z,61.51
2023-05-01T05:49:04.298Z,61.20
2023-05-01T05:51:31.635Z,60.90
2023-05-01T05:53:58.058Z,60.35
2023-05-01T05:56:24.524Z,60.00
2023-05-01T05:58:50.989Z,59.82
2023-05-01T06:01:17.817Z,59.72
2023-05-01T06:03:44.361Z,59.35
2023-05-01T06:06:11.097Z,59.33
2023-05-01T06:08:37.835Z,59.90
2023-05-01T06:11:04.519Z,57.79
2023-05-01T06:13:31.092Z,57.59
2023-05-01T06:15:57.564Z,57.61
2023-05-01T06:18:24.187Z,57.20
2023-05-01T06:20:51.135Z,57.26
2023-05-01T06:23:17.656Z,56.40
2023-05-01T06:25:44.367Z,56.82
2023-05-01T06:28:11.133Z,55.79
2023-05-01T06:30:37.571Z,56.54
2023-05-01T06:33:04.379Z,55.57
2023-05-01T06:35:30.969Z,55.12
2023-05-01T06:37:57.511Z,55.08
2023-05-01T06:40:23.956Z,54.47
2023-05-01T06:42:50.484Z,54.14
2023-05-01T06:45:17.000Z,52.37
2023-05-01T06:47:43.533Z,51.78
2023-05-01T06:50:10.555Z,52.56
2023-05-01T06:52:37.025Z,51.77
2023-05-01T06:55:04.134Z,51.19
2023-05-01T06:57:31.091Z,50.93
2023-05-01T06:59:57.751Z,50.47
2023-05-01T07:02:24.605Z,49.78
2023-05-01T07:04:51.136Z,49.64
2023-05-01T07:07:17.603Z,50.67
2023-05-01T07:09:44.055Z,48.45
2023-05-01T07:12:10.842Z,48.08
2023-05-01T07:14:37.352Z,47.64
2023-05-01T07:17:04.055Z,48.05
2023-05-01T07:19:30.608Z,48.62
2023-05-01T07:21:57.382Z,46.42
2023-05-01T07:24:23.904Z,46.34
2023-05-01T07:26:50.481Z,46.69
2023-05-01T07:29:17.258Z,46.29
2023-05-01T07:31:44.624Z,45.41
2023-05-01T07:34:11.815Z,44.61
2023-05-01T07:36:38.740Z,46.03
2023-05-01T07:39:06.665Z,44.47
2023-05-01T07:41:33.349Z,43.20
2023-05-01T07:44:00.167Z,43.33
2023-05-01T07:46:27.149Z,44.16
2023-05-01T07:48:53.907Z,43.64
2023-05-01T07:51:20.450Z,44.26
2023-05-01T07:53:47.430Z,45.70
2023-05-01T07:56:13.927Z,44.06
2023-05-01T07:58:42.559Z,41.98
2023-05-01T08:01:09.261Z,42.87
2023-05-01T08:03:36.029Z,42.48
2023-05-01T08:06:02.706Z,42.48
2023-05-01T08:08:29.291Z,43.65
2023-05-01T08:10:56.231Z,42.40
2023-05-01T08:13:22.819Z,42.79
2023-05-01T08:15:49.467Z,42.60
2023-05-01T08:18:20.493Z,41.41
2023-05-01T08:20:48.294Z,41.89
2023-05-01T08:23:18.792Z,40.94
2023-05-01T08:25:51.099Z,40.51
2023-05-01T08:28:21.325Z,41.83
2023-05-01T08:30:49.331Z,41.80
2023-05-01T08:33:16.527Z,39.89
2023-05-01T08:35:43.296Z,40.40
2023-05-01T08:38:11.290Z,40.49
2023-05-01T08:40:38.772Z,40.41
2023-05-01T08:43:05.327Z,39.81
2023-05-01T08:45:36.142Z,40.25
2023-05-01T08:48:06.101Z,39.25
2023-05-01T08:50:39.053Z,40.16
2023-05-01T08:53:06.468Z,39.20
2023-05-01T08:55:34.042Z,39.95
2023-05-01T08:58:01.456Z,37.95
2023-05-01T09:00:29.259Z,38.80
2023-05-01T09:02:56.635Z,37.28
2023-05-01T09:05:23.114Z,37.23
2023-05-01T09:07:50.759Z,37.27
2023-05-01T09:10:18.886Z,36.71
2023-05-01T09:12:47.690Z,36.70
2023-05-01T09:15:14.365Z,35.83
2023-05-01T09:17:42.575Z,38.61
2023-05-01T09:20:10.481Z,38.07
2023-05-01T09:22:37.111Z,36.27
2023-05-01T09:25:04.233Z,36.41
2023-05-01T09:27:35.788Z,34.47
2023-05-01T09:30:03.162Z,35.23
2023-05-01T09:32:29.883Z,36.41
2023-05-01T09:35:12.763Z,35.66
2023-05-01T09:37:39.658Z,34.44
2023-05-01T09:40:06.866Z,36.42
2023-05-01T09:42:36.046Z,34.73
2023-05-01T09:45:05.887Z,34.20
2023-05-01T09:47:34.318Z,34.20
2023-05-01T09:50:00.985Z,33.79
2023-05-01T09:52:28.861Z,33.83
2023-05-01T09:55:15.667Z,32.32
2023-05-01T09:57:43.622Z,31.82
2023-05-01T10:00:12.344Z,34.02
2023-05-01T10:02:39.884Z,32.85
2023-05-01T10:05:07.496Z,33.59
2023-05-01T10:07:34.636Z,34.63
2023-05-01T10:10:21.416Z,34.18
2023-05-01T10:12:49.343Z,34.79
2023-05-01T10:15:24.465Z,32.56
2023-05-01T10:17:54.173Z,32.73
2023-05-01T10:20:21.562Z,31.95
2023-05-01T10:22:49.354Z,31.87
2023-05-01T10:25:18.193Z,31.53
2023-05-01T10:27:45.359Z,30.29
2023-05-01T10:30:12.998Z,30.77
2023-05-01T10:32:43.301Z,30.82
2023-05-01T10:35:20.742Z,30.14
2023-05-01T10:37:49.612Z,29.42
2023-05-01T10:40:44.381Z,29.61
2023-05-01T10:43:16.317Z,30.38
2023-05-01T10:45:47.817Z,29.76
2023-05-01T10:48:39.808Z,28.88
2023-05-01T10:51:48.069Z,29.42
2023-05-01T10:54:14.772Z,29.98
2023-05-01T10:56:43.471Z,29.78
2023-05-01T10:59:11.806Z,29.88
2023-05-01T11:01:40.308Z,30.04
2023-05-01T11:04:19.548Z,30.50
2023-05-01T11:07:08.873Z,28.95
2023-05-01T11:09:55.551Z,27.88
2023-05-01T11:12:47.624Z,29.56
2023-05-01T11:15:33.985Z,29.42
2023-05-01T11:18:02.601Z,29.86
2023-05-01T11:20:29.586Z,30.75
2023-05-01T11:22:57.567Z,29.59
2023-05-01T11:25:28.015Z,28.62
2023-05-01T11:27:57.219Z,29.31
2023-05-01T11:30:24.700Z,29.29
2023-05-01T11:32:52.054Z,29.15
2023-05-01T11:35:23.789Z,29.83
2023-05-01T11:37:56.890Z,30.01
2023-05-01T11:40:24.328Z,29.49
2023-05-01T11:42:52.562Z,29.04
2023-05-01T11:45:19.805Z,28.24
2023-05-01T11:47:46.461Z,28.84
2023-05-01T11:50:13.308Z,28.80
2023-05-01T11:52:52.921Z,29.09
2023-05-01T11:55:20.095Z,27.84
2023-05-01T11:57:52.001Z,27.75
2023-05-01T12:00:39.721Z,29.65
2023-05-01T12:03:14.538Z,29.14
2023-05-01T12:05:43.231Z,28.76
2023-05-01T12:08:23.527Z,29.63
2023-05-01T12:10:53.974Z,30.55
2023-05-01T12:13:20.686Z,30.79
2023-05-01T12:15:52.477Z,30.98
2023-05-01T12:18:19.642Z,29.85
2023-05-01T12:20:50.259Z,31.11
2023-05-01T12:23:16.941Z,30.47
2023-05-01T12:25:44.994Z,30.77
2023-05-01T12:28:19.039Z,30.23
2023-05-01T12:30:47.441Z,30.83
2023-05-01T12:33:15.909Z,31.08
2023-05-01T12:35:46.656Z,31.04
2023-05-01T12:38:21.021Z,31.07
2023-05-01T12:40:54.971Z,30.56
2023-05-01T12:43:23.611Z,31.59
2023-05-01T12:45:52.635Z,31.82
2023-05-01T12:48:19.799Z,31.33
2023-05-01T12:50:48.100Z,30.86
2023-05-01T12:53:15.402Z,30.91
2023-05-01T12:55:52.346Z,32.84
2023-05-01T12:58:19.295Z,32.03
2023-05-01T13:00:48.200Z,32.49
2023-05-01T13:03:17.322Z,33.92
2023-05-01T13:05:57.332Z,32.21
2023-05-01T13:08:37.142Z,32.07
2023-05-01T13:11:12.923Z,32.09
2023-05-01T13:13:40.017Z,31.53
2023-05-01T13:16:06.750Z,32.53
2023-05-01T13:18:34.381Z,33.33
2023-05-01T13:21:08.919Z,33.31
2023-05-01T13:23:39.480Z,33.23
2023-05-01T13:26:07.265Z,33.83
2023-05-01T13:28:35.556Z,33.98
2023-05-01T13:31:02.294Z,33.76
2023-05-01T13:33:31.409Z,33.29
2023-05-01T13:35:58.034Z,33.19
2023-05-01T13:38:25.109Z,34.11
2023-05-01T13:40:51.674Z,33.52
2023-05-01T13:43:18.188Z,33.28
2023-05-01T13:45:44.699Z,32.80
2023-05-01T13:48:11.431Z,32.92
2023-05-01T13:50:40.456Z,33.94
2023-05-01T13:53:07.002Z,35.40
2023-05-01T13:55:33.506Z,35.29
2023-05-01T13:58:01.020Z,34.94
2023-05-01T14:00:27.535Z,35.15
2023-05-01T14:02:56.511Z,34.69
2023-05-01T14:05:29.265Z,34.87
2023-05-01T14:07:58.287Z,34.13
2023-05-01T14:10:28.038Z,35.96
2023-05-01T14:12:58.865Z,36.43
2023-05-01T14:15:25.712Z,37.48
2023-05-01T14:17:53.059Z,36.56
2023-05-01T14:20:19.748Z,36.86
2023-05-01T14:22:51.911Z,36.92
2023-05-01T14:25:25.564Z,37.40
2023-05-01T14:27:53.560Z,37.23
2023-05-01T14:30:27.704Z,37.49
2023-05-01T14:32:55.297Z,37.38
2023-05-01T14:35:23.598Z,37.47
2023-05-01T14:37:50.593Z,38.05
2023-05-01T14:40:18.686Z,39.01
2023-05-01T14:42:45.524Z,37.90
2023-05-01T14:45:15.212Z,38.13
2023-05-01T14:47:47.410Z,39.22
2023-05-01T14:50:20.700Z,38.59
2023-05-01T14:52:48.275Z,37.94
2023-05-01T14:55:17.773Z,37.57
2023-05-01T14:57:44.967Z,38.05
2023-05-01T15:00:12.084Z,38.61
2023-05-01T15:02:39.291Z,39.27
2023-05-01T15:05:06.272Z,39.10
2023-05-01T15:07:32.740Z,39.77
2023-05-01T15:09:59.456Z,38.84
2023-05-01T15:12:26.259Z,38.61
2023-05-01T15:14:52.749Z,39.90
2023-05-01T15:17:19.179Z,39.10
2023-05-01T15:19:45.807Z,39.10
2023-05-01T15:22:12.279Z,40.59
2023-05-01T15:24:39.293Z,40.18
2023-05-01T15:27:06.082Z,40.80
2023-05-01T15:29:32.590Z,39.66
2023-05-01T15:32:11.412Z,39.34
2023-05-01T15:34:39.039Z,40.02
2023-05-01T15:37:05.538Z,38.97
2023-05-01T15:39:33.260Z,39.96
2023-05-01T15:42:00.902Z,39.27
2023-05-01T15:44:29.198Z,40.83
2023-05-01T15:46:55.999Z,41.01
2023-05-01T15:49:22.710Z,41.73
2023-05-01T15:51:49.186Z,42.13
2023-05-01T15:54:15.689Z,42.24
2023-05-01T15:56:42.207Z,42.08
2023-05-01T15:59:08.755Z,42.42
2023-05-01T16:01:35.522Z,42.74
2023-05-01T16:04:02.982Z,42.93
2023-05-01T16:06:30.218Z,42.83
2023-05-01T16:08:59.075Z,42.74
2023-05-01T16:11:25.602Z,42.62
2023-05-01T16:13:54.235Z,42.69
2023-05-01T16:16:26.032Z,43.55
2023-05-01T16:18:59.345Z,43.70
2023-05-01T16:21:26.764Z,43.33
2023-05-01T16:23:55.923Z,43.33
2023-05-01T16:26:26.142Z,43.47
2023-05-01T16:29:06.361Z,42.54
2023-05-01T16:31:38.964Z,42.02
2023-05-01T16:34:07.432Z,41.88
2023-05-01T16:36:35.673Z,42.80
2023-05-01T16:39:02.293Z,43.26
2023-05-01T16:41:28.822Z,42.26
2023-05-01T16:43:58.658Z,42.21
2023-05-01T16:46:25.789Z,42.17
2023-05-01T16:48:52.649Z,42.23
2023-05-01T16:51:20.036Z,41.30
2023-05-01T16:53:46.592Z,41.27
2023-05-01T16:56:13.083Z,41.04
2023-05-01T16:58:39.538Z,40.81
2023-05-01T17:01:06.114Z,40.52
2023-05-01T17:03:32.668Z,41.44
2023-05-01T17:05:59.351Z,40.84
2023-05-01T17:08:26.177Z,41.75
2023-05-01T17:10:52.678Z,41.77
2023-05-01T17:13:19.601Z,42.07
2023-05-01T17:15:46.180Z,42.29
2023-05-01T17:18:12.794Z,41.87
2023-05-01T17:20:39.300Z,42.84
2023-05-01T17:23:05.784Z,43.07
2023-05-01T17:25:32.290Z,43.18
2023-05-01T17:27:59.263Z,43.67
2023-05-01T17:30:25.854Z,43.52
2023-05-01T17:32:53.133Z,43.36
2023-05-01T17:35:19.725Z,43.60
2023-05-01T17:37:46.161Z,43.40
2023-05-01T17:40:12.880Z,43.71
2023-05-01T17:42:39.888Z,43.39
2023-05-01T17:45:07.916Z,43.57
2023-05-01T17:47:34.686Z,43.27
2023-05-01T17:50:04.736Z,44.01
2023-05-01T17:52:31.383Z,44.29
2023-05-01T17:54:58.307Z,44.58
2023-05-01T17:57:24.889Z,44.49
2023-05-01T17:59:51.380Z,44.56
2023-05-01T18:02:18.177Z,45.03
2023-05-01T18:04:45.984Z,44.88
2023-05-01T18:07:12.643Z,44.21
2023-05-01T18:09:39.095Z,44.80
2023-05-01T18:12:05.706Z,44.73
2023-05-01T18:14:32.312Z,44.19
2023-05-01T18:16:58.878Z,45.00
2023-05-01T18:19:25.370Z,45.14
2023-05-01T18:21:51.827Z,45.25
2023-05-01T18:24:18.304Z,45.75
2023-05-01T18:26:44.760Z,45.26
2023-05-01T18:29:13.140Z,45.86
2023-05-01T18:31:39.725Z,45.66
2023-05-01T18:34:10.269Z,46.42
2023-05-01T18:36:36.857Z,46.95
2023-05-01T18:39:03.409Z,45.74
2023-05-01T18:41:30.197Z,46.58
2023-05-01T18:43:58.153Z,46.45
2023-05-01T18:46:24.830Z,47.11
2023-05-01T18:48:51.648Z,47.36
2023-05-01T18:51:18.254Z,47.00
2023-05-01T18:53:44.831Z,47.58
2023-05-01T18:56:11.377Z,47.84
2023-05-01T18:58:39.889Z,48.00
2023-05-01T19:01:06.791Z,48.02
2023-05-01T19:03:33.452Z,48.09
2023-05-01T19:06:00.025Z,48.51
2023-05-01T19:08:26.530Z,48.84
2023-05-01T19:10:52.998Z,49.01
2023-05-01T19:13:19.517Z,48.68
2023-05-01T19:15:46.484Z,48.87
2023-05-01T19:18:13.175Z,50.25
2023-05-01T19:20:39.705Z,50.15
2023-05-01T19:23:06.254Z,50.45
2023-05-01T19:25:33.613Z,50.75
2023-05-01T19:28:02.330Z,50.24
2023-05-01T19:30:28.978Z,51.33
2023-05-01T19:32:55.558Z,50.96
2023-05-01T19:35:22.069Z,51.71
2023-05-01T19:37:53.861Z,52.14
2023-05-01T19:40:20.582Z,51.22
2023-05-01T19:42:47.079Z,51.92
2023-05-01T19:45:14.717Z,52.43
2023-05-01T19:47:42.557Z,52.75
2023-05-01T19:50:09.622Z,52.36
2023-05-01T19:52:36.093Z,52.92
2023-05-01T19:55:05.021Z,52.24
2023-05-01T19:57:31.592Z,53.07
2023-05-01T20:00:01.306Z,53.70
2023-05-01T20:02:28.647Z,53.47
2023-05-01T20:04:55.307Z,54.23
2023-05-01T20:07:21.882Z,54.45
2023-05-01T20:09:48.954Z,54.17
2023-05-01T20:12:15.530Z,55.04
2023-05-01T20:14:42.136Z,55.29
2023-05-01T20:17:09.371Z,55.24
2023-05-01T20:19:39.413Z,55.71
2023-05-01T20:22:06.382Z,55.08
2023-05-01T20:24:32.910Z,54.84
2023-05-01T20:26:59.616Z,54.33
2023-05-01T20:29:27.053Z,53.57
2023-05-01T20:31:53.721Z,54.16
2023-05-01T20:34:20.880Z,54.25
2023-05-01T20:36:47.360Z,54.17
2023-05-01T20:39:14.055Z,55.37
2023-05-01T20:41:40.660Z,54.94
2023-05-01T20:44:08.876Z,55.00
2023-05-01T20:46:35.410Z,54.75
2023-05-01T20:49:01.945Z,54.78
2023-05-01T20:51:28.415Z,56.35
2023-05-01T20:53:54.899Z,55.71
2023-05-01T20:56:21.382Z,55.67
2023-05-01T20:58:47.872Z,56.43
2023-05-01T21:01:14.354Z,57.22
2023-05-01T21:03:41.156Z,56.57
2023-05-01T21:06:07.845Z,55.46
2023-05-01T21:08:34.310Z,55.66
2023-05-01T21:11:02.125Z,55.48
2023-05-01T21:13:28.747Z,55.37
2023-05-01T21:15:55.748Z,56.23
2023-05-01T21:18:24.195Z,56.22
2023-05-01T21:20:51.402Z,56.27
2023-05-01T21:23:18.077Z,56.10
2023-05-01T21:25:44.682Z,56.62
2023-05-01T21:28:14.524Z,56.23
2023-05-01T21:30:41.549Z,56.42
2023-05-01T21:33:12.273Z,56.49
2023-05-01T21:35:41.776Z,56.94
2023-05-01T21:38:08.826Z,57.25
2023-05-01T21:40:41.779Z,57.05
2023-05-01T21:43:09.128Z,56.81
2023-05-01T21:45:40.298Z,57.46
2023-05-01T21:48:14.354Z,57.65
2023-05-01T21:50:40.864Z,57.43
2023-05-01T21:53:09.560Z,57.67
2023-05-01T21:55:36.057Z,57.51
2023-05-01T21:58:02.699Z,57.95
2023-05-01T22:00:30.021Z,58.83
2023-05-01T22:02:56.894Z,58.37
2023-05-01T22:05:23.498Z,58.45
2023-05-01T22:07:52.162Z,58.47
2023-05-01T22:10:19.761Z,58.76
2023-05-01T22:12:46.945Z,59.30
2023-05-01T22:15:15.028Z,59.42
2023-05-01T22:17:41.558Z,58.87
2023-05-01T22:20:11.572Z,60.62
2023-05-01T22:22:40.036Z,60.42
2023-05-01T22:25:07.345Z,60.38
2023-05-01T22:27:34.637Z,60.91
2023-05-01T22:30:03.903Z,60.58
2023-05-01T22:32:30.516Z,62.39
2023-05-01T22:34:57.077Z,63.17
2023-05-01T22:37:25.504Z,63.49
2023-05-01T22:39:52.796Z,64.66
2023-05-01T22:42:19.354Z,64.89
2023-05-01T22:44:45.880Z,65.98
2023-05-01T22:47:12.452Z,64.90
2023-05-01T22:49:39.026Z,66.53
2023-05-01T22:52:05.595Z,66.72
2023-05-01T22:54:32.167Z,66.39
2023-05-01T22:56:58.713Z,66.43
2023-05-01T22:59:26.018Z,66.70
2023-05-01T23:01:53.018Z,67.05
2023-05-01T23:04:20.122Z,68.64
2023-05-01T23:06:46.958Z,68.17
2023-05-01T23:09:13.880Z,69.94
2023-05-01T23:11:41.007Z,69.03
2023-05-01T23:14:07.699Z,71.30
2023-05-01T23:16:41.683Z,70.22
2023-05-01T23:19:21.819Z,71.00
2023-05-01T23:21:49.581Z,74.28
2023-05-01T23:24:18.418Z,74.57
2023-05-01T23:26:45.816Z,76.33
2023-05-01T23:29:13.533Z,75.68
2023-05-01T23:31:46.483Z,76.37
2023-05-01T23:34:17.584Z,74.66
2023-05-01T23:36:46.041Z,76.14
2023-05-01T23:39:12.739Z,76.87
2023-05-01T23:41:39.559Z,76.10
2023-05-01T23:44:06.501Z,78.50
2023-05-01T23:46:33.062Z,78.49
2023-05-01T23:48:59.682Z,76.22
2023-05-01T23:51:27.782Z,74.48
2023-05-01T23:53:54.341Z,77.04
2023-05-01T23:56:20.807Z,78.44
2023-05-01T23:58:47.232Z,78.94
